Corunna, Michigan
Current Conditions -  °F | °C
As of 11:14 AM on Thursday 23 Oct 2014 (Local Time) from KRNP Reporting Station
Clear Clear  
Wind Chill: 44°   Ceiling: Unl
Heat Index: 44°   Visibility: 10mi
Dew Point: 40°   Wind: 0mph
Humidity: 88%   Direction: NA
Pressure: 30.25"   Gusts: NA
Location:  42.98°N, 84.12°W
Report Text: KRNP 231514Z AUTO 00000KT 10SM CLR 07/05 A3025 RMK AO2 T00650046
Loading
Personal Weather Stations






























Interactive Weather Map New forecast layout! Learn more

10-Day Weather Forecast

Advertisements
Track Severe Weather on mobile